Главная страница
METAR-TAF:

METAR-TAF

Аэропорты :

Псков, Россия

широта: 57-47-06N, долгота: 028-23-54E, высота над уровнем моря: 47 м

Текущие метеонаблюдения

Эта сводка был подготовлена 44 минут назад, в 09:30 UTC
Ветер 6 Узел от южный, изменяющийся между юго-юго-восточный и юго-западный
Температура 14°C
Влажность 67%
Давление 1019 hPa

METAR: ULOO 180930Z 18003MPS 150V220 P5000 NSC 14/08 Q1019 R19/090070 NOSIG RMK QFE760

Время: 13:14 (10:14 UTC)

Прогноз

Эта сводка был подготовлена 2 часа и 18 минут назад, в 07:56 UTC
Прогноз действительный с 18-го 09 UTC до 18-го 18 UTC
Ветер 6 Узел от южный
Видимость: 6000 м

TAF: ULOO 180756Z 1809/1818 18003MPS 6000 NSC

Метеонаблюдения и прогнозы для более 4000 аэропортов (сводки METAR и TAF).

Имеющиеся станции представлены на карте желтыми и красными точками.

Чтобы увидеть название станции, наведите на нее мышь.

Затем щелкните, чтобы увидеть метеонаблюдения и метеопрогнозы.

Управление картой: чтобы увеличить масштаб, щелкните зеленые кнопки с черным крестиком; чтобы уменьшить масштаб, щелкните зеленую кнопку с тире; для просмотра соседних карт щелкайте зеленые стрелки.


METAR-TAF: